Time;durP1;ratioP1;P1;durP2;ratioP2;P2;SDS_P1;SDS_P2;PMS_P1;PMS_P2;Temp;Humidity;BMP_temperature;BMP_pressure;BME280_temperature;BME280_humidity;BME280_pressure;Samples;Min_cycle;Max_cycle;Signal;HPM_P1;HPM_P2
2022/12/24 00:01:03;;;;;;;;;;;10.60;99.90;;;;;;5026899;28;19971;-73
2022/12/24 00:03:32;;;;;;;;;;;10.60;99.90;;;;;;5018327;28;19936;-73
2022/12/24 00:06:03;;;;;;;;;;;10.60;99.90;;;;;;5003527;28;19929;-73
2022/12/24 00:08:30;;;;;;;;;;;10.70;99.90;;;;;;5040188;28;20368;-73
2022/12/24 00:10:57;;;;;;;;;;;10.70;99.90;;;;;;5016510;28;20304;-73
2022/12/24 00:13:27;;;;;;;;;;;10.70;99.90;;;;;;5044939;28;19924;-73
2022/12/24 00:15:56;;;;;;;;;;;10.60;99.90;;;;;;5019534;28;20211;-73
2022/12/24 00:18:27;;;;;;;;;;;10.60;99.90;;;;;;5039192;28;20022;-75
2022/12/24 00:20:55;;;;;;;;;;;10.50;99.90;;;;;;5016753;28;19925;-73
2022/12/24 00:23:22;;;;;;;;;;;10.50;99.90;;;;;;5031601;28;19932;-73
2022/12/24 00:25:51;;;;;;;;;;;10.40;99.90;;;;;;5026042;28;20447;-72
2022/12/24 00:28:21;;;;;;;;;;;10.40;99.90;;;;;;5015548;28;19925;-73
2022/12/24 00:30:50;;;;;;;;;;;10.40;99.90;;;;;;5016548;28;19929;-72
2022/12/24 00:33:21;;;;;;;;;;;10.40;99.90;;;;;;5016232;28;20358;-72
2022/12/24 00:35:49;;;;;;;;;;;10.50;99.90;;;;;;5023248;28;19925;-71
2022/12/24 00:38:18;;;;;;;;;;;10.50;99.90;;;;;;5008512;28;19940;-73
2022/12/24 00:40:49;;;;;;;;;;;10.50;99.90;;;;;;5041138;28;19999;-72
2022/12/24 00:43:17;;;;;;;;;;;10.40;99.90;;;;;;5013066;28;19931;-72
2022/12/24 00:45:49;;;;;;;;;;;10.40;99.90;;;;;;5010239;28;20295;-73
2022/12/24 00:48:25;;;;;;;;;;;10.40;99.90;;;;;;5043539;28;19935;-72
2022/12/24 00:50:57;;;;;;;;;;;10.30;99.90;;;;;;5047585;28;20002;-72
2022/12/24 00:53:25;;;;;;;;;;;10.30;99.90;;;;;;5032844;28;19931;-73
2022/12/24 00:55:53;;;;;;;;;;;10.30;99.90;;;;;;5016397;28;19982;-72
2022/12/24 00:58:21;;;;;;;;;;;10.30;99.90;;;;;;5031635;28;19932;-72
2022/12/24 01:00:51;;;;;;;;;;;10.20;99.90;;;;;;5027888;28;19925;-72
2022/12/24 01:03:35;;;;;;;;;;;10.30;99.90;;;;;;5039271;28;19971;-72
2022/12/24 01:06:12;;;;;;;;;;;10.20;99.90;;;;;;5004757;28;19933;-73
2022/12/24 01:08:41;;;;;;;;;;;10.20;99.90;;;;;;5018163;28;19929;-73
2022/12/24 01:11:14;;;;;;;;;;;10.20;99.90;;;;;;5030284;28;19928;-72
2022/12/24 01:13:47;;;;;;;;;;;10.20;99.90;;;;;;5016361;28;19925;-72
2022/12/24 01:16:19;;;;;;;;;;;10.20;99.90;;;;;;5028729;28;19933;-72
2022/12/24 01:18:49;;;;;;;;;;;10.20;99.90;;;;;;5042310;28;19924;-72
2022/12/24 01:21:43;;;;;;;;;;;10.20;99.90;;;;;;5043029;28;19923;-72
2022/12/24 01:24:17;;;;;;;;;;;10.10;99.90;;;;;;5026461;28;19983;-72
2022/12/24 01:26:52;;;;;;;;;;;10.10;99.90;;;;;;5041343;28;20299;-72
2022/12/24 01:29:28;;;;;;;;;;;10.10;99.90;;;;;;5044291;28;20016;-72
2022/12/24 01:32:03;;;;;;;;;;;10.20;99.90;;;;;;5047855;28;20298;-72
2022/12/24 01:34:35;;;;;;;;;;;10.20;99.90;;;;;;4994938;28;20374;-72
2022/12/24 01:37:03;;;;;;;;;;;10.10;99.90;;;;;;5012258;28;20363;-73
2022/12/24 01:39:34;;;;;;;;;;;10.10;99.90;;;;;;4998029;28;20291;-72
2022/12/24 01:48:15;;;;;;;;;;;10.10;99.90;;;;;;5030698;28;19929;-72
2022/12/24 01:50:45;;;;;;;;;;;10.10;99.90;;;;;;5034634;28;20514;-72
2022/12/24 01:53:16;;;;;;;;;;;10.10;99.90;;;;;;5029669;28;20329;-72
2022/12/24 01:55:45;;;;;;;;;;;10.10;99.90;;;;;;5029387;28;19929;-72
2022/12/24 01:58:15;;;;;;;;;;;10.10;99.90;;;;;;5026159;28;19925;-72
2022/12/24 02:00:45;;;;;;;;;;;10.20;99.90;;;;;;5027984;28;19924;-73
2022/12/24 02:03:22;;;;;;;;;;;10.20;99.90;;;;;;5043299;28;19932;-72
2022/12/24 02:06:19;;;;;;;;;;;10.10;99.90;;;;;;5040351;28;19925;-71
2022/12/24 02:08:48;;;;;;;;;;;10.10;99.90;;;;;;5033897;28;20282;-72
2022/12/24 02:11:20;;;;;;;;;;;10.10;99.90;;;;;;5031317;28;19928;-71
2022/12/24 02:13:56;;;;;;;;;;;10.10;99.90;;;;;;5054144;28;19928;-72
2022/12/24 02:16:45;;;;;;;;;;;10.10;99.90;;;;;;5019138;28;20363;-72
2022/12/24 02:19:32;;;;;;;;;;;10.10;99.90;;;;;;5010468;28;19955;-72
2022/12/24 02:22:03;;;;;;;;;;;10.10;99.90;;;;;;5032131;28;19928;-72
2022/12/24 02:24:46;;;;;;;;;;;10.10;99.90;;;;;;5044454;28;19933;-72
2022/12/24 02:27:24;;;;;;;;;;;10.10;99.90;;;;;;5033697;28;19979;-72
2022/12/24 02:29:59;;;;;;;;;;;10.10;99.90;;;;;;5024463;28;20411;-72
2022/12/24 02:32:47;;;;;;;;;;;10.10;99.90;;;;;;5033996;28;19928;-73
2022/12/24 02:36:04;;;;;;;;;;;10.10;99.90;;;;;;5034442;28;19991;-72
2022/12/24 02:38:55;;;;;;;;;;;10.10;99.90;;;;;;5027026;28;19933;-72
2022/12/24 02:42:20;;;;;;;;;;;10.00;99.90;;;;;;5022186;28;20273;-72
2022/12/24 02:44:27;;;;;;;;;;;9.90;99.90;;;;;;5022037;28;20342;-72
2022/12/24 02:46:58;;;;;;;;;;;9.90;99.90;;;;;;5031753;28;20300;-72
2022/12/24 02:49:27;;;;;;;;;;;9.90;99.90;;;;;;5006859;28;20343;-72
2022/12/24 02:51:56;;;;;;;;;;;9.90;99.90;;;;;;4997452;28;19936;-72
2022/12/24 02:54:26;;;;;;;;;;;9.90;99.90;;;;;;5033313;28;20008;-72
2022/12/24 02:57:10;;;;;;;;;;;9.90;99.90;;;;;;5014757;28;19929;-72
2022/12/24 02:59:42;;;;;;;;;;;9.90;99.90;;;;;;5028358;28;19936;-72
2022/12/24 03:02:28;;;;;;;;;;;10.00;99.90;;;;;;5017923;28;20303;-72
2022/12/24 03:05:09;;;;;;;;;;;9.90;99.90;;;;;;5043344;28;19953;-73
2022/12/24 03:07:45;;;;;;;;;;;9.90;99.90;;;;;;5042143;28;19935;-72
2022/12/24 03:11:04;;;;;;;;;;;9.90;99.90;;;;;;5040030;28;19932;-72
2022/12/24 03:16:29;;;;;;;;;;;9.90;99.90;;;;;;5028914;28;20361;-72
2022/12/24 03:19:29;;;;;;;;;;;9.90;99.90;;;;;;5031185;28;19931;-72
2022/12/24 03:22:03;;;;;;;;;;;9.80;99.90;;;;;;5027706;28;19925;-72
2022/12/24 03:24:47;;;;;;;;;;;9.90;99.90;;;;;;5032123;28;20351;-72
2022/12/24 03:27:43;;;;;;;;;;;9.90;99.90;;;;;;5039907;28;19937;-72
2022/12/24 03:30:18;;;;;;;;;;;9.90;99.90;;;;;;5038726;28;19928;-72
2022/12/24 03:32:51;;;;;;;;;;;9.90;99.90;;;;;;5050335;28;19946;-72
2022/12/24 03:35:20;;;;;;;;;;;10.00;99.90;;;;;;5027300;28;20306;-72
2022/12/24 03:37:49;;;;;;;;;;;10.00;99.90;;;;;;5032608;28;20338;-72
2022/12/24 03:40:17;;;;;;;;;;;10.00;99.90;;;;;;5039865;28;19948;-72
2022/12/24 03:42:46;;;;;;;;;;;10.00;99.90;;;;;;5016009;28;19975;-72
2022/12/24 03:45:13;;;;;;;;;;;10.00;99.90;;;;;;5008807;28;19925;-72
2022/12/24 03:48:14;;;;;;;;;;;10.00;99.90;;;;;;5036847;28;19933;-72
2022/12/24 03:50:59;;;;;;;;;;;10.00;99.90;;;;;;5031176;28;19925;-72
2022/12/24 03:53:28;;;;;;;;;;;10.00;99.90;;;;;;5021056;28;19925;-72
2022/12/24 03:55:58;;;;;;;;;;;10.00;99.90;;;;;;5021008;28;20300;-72
2022/12/24 03:58:28;;;;;;;;;;;10.00;99.90;;;;;;5013981;28;19931;-72
2022/12/24 04:01:00;;;;;;;;;;;10.00;99.90;;;;;;5026371;28;19925;-73
2022/12/24 04:03:32;;;;;;;;;;;10.00;99.90;;;;;;5036003;28;20299;-72
2022/12/24 04:06:06;;;;;;;;;;;9.90;99.90;;;;;;5017155;28;20425;-72
2022/12/24 04:08:39;;;;;;;;;;;10.00;99.90;;;;;;5038595;28;19932;-73
2022/12/24 04:11:12;;;;;;;;;;;10.00;99.90;;;;;;5040046;28;19925;-72
2022/12/24 04:13:44;;;;;;;;;;;10.00;99.90;;;;;;5031267;28;19933;-72
2022/12/24 04:16:16;;;;;;;;;;;10.00;99.90;;;;;;5038915;28;19995;-72
2022/12/24 04:18:48;;;;;;;;;;;10.00;99.90;;;;;;5039526;28;20343;-72
2022/12/24 04:21:20;;;;;;;;;;;10.10;99.90;;;;;;5049656;28;20019;-72
2022/12/24 04:23:52;;;;;;;;;;;10.00;99.90;;;;;;5047108;28;20279;-72
2022/12/24 04:26:24;;;;;;;;;;;10.00;99.90;;;;;;5045862;28;19936;-73
2022/12/24 04:28:55;;;;;;;;;;;10.00;99.90;;;;;;5040699;28;19929;-72
2022/12/24 04:31:27;;;;;;;;;;;10.00;99.90;;;;;;5040252;28;20585;-72
2022/12/24 04:33:54;;;;;;;;;;;10.00;99.90;;;;;;5050427;28;19929;-72
2022/12/24 04:36:26;;;;;;;;;;;9.90;99.90;;;;;;5043225;28;20398;-72
2022/12/24 04:38:58;;;;;;;;;;;10.00;99.90;;;;;;5043697;28;20015;-72
2022/12/24 04:41:30;;;;;;;;;;;10.00;99.90;;;;;;5046159;28;19982;-73
2022/12/24 04:44:02;;;;;;;;;;;9.90;99.90;;;;;;5046111;28;19925;-73
2022/12/24 04:46:34;;;;;;;;;;;9.90;99.90;;;;;;5038509;28;19929;-72
2022/12/24 04:49:06;;;;;;;;;;;9.90;99.90;;;;;;5040084;28;19928;-72
2022/12/24 04:51:38;;;;;;;;;;;9.90;99.90;;;;;;5034674;28;19924;-72
2022/12/24 04:54:10;;;;;;;;;;;9.90;99.90;;;;;;5042797;28;19929;-72
2022/12/24 04:56:42;;;;;;;;;;;9.90;99.90;;;;;;5043214;28;19979;-73
2022/12/24 04:59:14;;;;;;;;;;;9.90;99.90;;;;;;5042045;28;19929;-72
2022/12/24 05:01:46;;;;;;;;;;;9.80;99.90;;;;;;5040203;28;19925;-73
2022/12/24 05:04:18;;;;;;;;;;;9.80;99.90;;;;;;5040397;28;19932;-73
2022/12/24 05:06:49;;;;;;;;;;;9.80;99.90;;;;;;5036650;28;19929;-73
2022/12/24 05:09:21;;;;;;;;;;;9.80;99.90;;;;;;5037523;28;19932;-73
2022/12/24 05:11:53;;;;;;;;;;;9.80;99.90;;;;;;5048199;28;20379;-72
2022/12/24 05:14:25;;;;;;;;;;;9.80;99.90;;;;;;5045009;28;20299;-73
2022/12/24 05:16:57;;;;;;;;;;;9.70;99.90;;;;;;5048180;28;19928;-72
2022/12/24 05:19:29;;;;;;;;;;;9.70;99.90;;;;;;5042015;28;19933;-72
2022/12/24 05:27:42;;;;;;;;;;;9.70;99.90;;;;;;5035059;28;19925;-72
2022/12/24 05:30:14;;;;;;;;;;;9.70;99.90;;;;;;5037433;28;20395;-72
2022/12/24 05:32:46;;;;;;;;;;;9.60;99.90;;;;;;5041823;28;19974;-73
2022/12/24 05:35:18;;;;;;;;;;;9.60;99.90;;;;;;5021488;28;19928;-72
2022/12/24 05:37:50;;;;;;;;;;;9.60;99.90;;;;;;5043529;28;20443;-73
2022/12/24 05:40:22;;;;;;;;;;;9.50;99.90;;;;;;5035293;28;19925;-73
2022/12/24 05:42:54;;;;;;;;;;;9.60;99.90;;;;;;5054319;28;20018;-72
2022/12/24 05:45:26;;;;;;;;;;;9.60;99.90;;;;;;5032093;28;19925;-73
2022/12/24 05:47:58;;;;;;;;;;;9.50;99.90;;;;;;5039771;28;19925;-72
2022/12/24 05:50:30;;;;;;;;;;;9.60;99.90;;;;;;5022589;28;19964;-72
2022/12/24 05:53:05;;;;;;;;;;;9.60;99.90;;;;;;5049504;28;19928;-72
2022/12/24 05:55:37;;;;;;;;;;;9.50;99.90;;;;;;5039291;28;20020;-72
2022/12/24 05:58:09;;;;;;;;;;;9.50;99.90;;;;;;5034430;28;19926;-72
2022/12/24 06:00:40;;;;;;;;;;;9.50;99.90;;;;;;5038488;28;19925;-73
2022/12/24 06:03:12;;;;;;;;;;;9.50;99.90;;;;;;5049810;28;20030;-72
2022/12/24 06:05:44;;;;;;;;;;;9.50;99.90;;;;;;5042165;28;19929;-72
2022/12/24 06:08:16;;;;;;;;;;;9.50;99.90;;;;;;5041443;28;19932;-72
2022/12/24 06:10:53;;;;;;;;;;;9.60;99.90;;;;;;5035455;28;19932;-72
2022/12/24 06:13:25;;;;;;;;;;;9.50;99.90;;;;;;5044822;28;19932;-72
2022/12/24 06:15:58;;;;;;;;;;;9.50;99.90;;;;;;5037039;28;19925;-72
2022/12/24 06:18:30;;;;;;;;;;;9.50;99.90;;;;;;5040950;28;20455;-72
2022/12/24 06:21:03;;;;;;;;;;;9.50;99.90;;;;;;5042069;28;19928;-72
2022/12/24 06:23:36;;;;;;;;;;;9.60;99.90;;;;;;5033825;28;19929;-73
2022/12/24 06:26:10;;;;;;;;;;;9.60;99.90;;;;;;5043009;28;19926;-72
2022/12/24 06:28:42;;;;;;;;;;;9.60;99.90;;;;;;5033143;28;19929;-72
2022/12/24 06:31:15;;;;;;;;;;;9.60;99.90;;;;;;5044410;28;20032;-72
2022/12/24 06:33:47;;;;;;;;;;;9.60;99.90;;;;;;5036242;28;19925;-72
2022/12/24 06:36:24;;;;;;;;;;;9.50;99.90;;;;;;5042912;28;19933;-72
2022/12/24 06:38:56;;;;;;;;;;;9.50;99.90;;;;;;5038278;28;19929;-72
2022/12/24 06:41:28;;;;;;;;;;;9.50;99.90;;;;;;5049394;28;19925;-72
2022/12/24 06:44:00;;;;;;;;;;;9.60;99.90;;;;;;5043160;28;19933;-72
2022/12/24 06:46:32;;;;;;;;;;;9.60;99.90;;;;;;5046790;28;19935;-72
2022/12/24 06:49:04;;;;;;;;;;;9.60;99.90;;;;;;5022310;28;20023;-72
2022/12/24 06:51:36;;;;;;;;;;;9.60;99.90;;;;;;5045179;28;19925;-72
2022/12/24 06:54:08;;;;;;;;;;;9.60;99.90;;;;;;5041705;28;20024;-72
2022/12/24 06:56:40;;;;;;;;;;;9.60;99.90;;;;;;5041695;28;19936;-72
2022/12/24 06:59:11;;;;;;;;;;;9.60;99.90;;;;;;5039973;28;20551;-72
2022/12/24 07:01:38;;;;;;;;;;;9.50;99.90;;;;;;5048929;28;20379;-72
2022/12/24 07:04:10;;;;;;;;;;;9.60;99.90;;;;;;5043956;28;20398;-72
2022/12/24 07:06:42;;;;;;;;;;;9.60;99.90;;;;;;5038278;28;19978;-72
2022/12/24 07:09:14;;;;;;;;;;;9.50;99.90;;;;;;5042075;28;19924;-72
2022/12/24 07:11:45;;;;;;;;;;;9.60;99.90;;;;;;5046108;28;19925;-72
2022/12/24 07:14:17;;;;;;;;;;;9.50;99.90;;;;;;5027130;28;19978;-72
2022/12/24 07:16:49;;;;;;;;;;;9.60;99.90;;;;;;5042424;28;19952;-72
2022/12/24 07:19:21;;;;;;;;;;;9.50;99.90;;;;;;5029242;28;19932;-72
2022/12/24 07:21:53;;;;;;;;;;;9.50;99.90;;;;;;5048524;28;19929;-72
2022/12/24 07:24:25;;;;;;;;;;;9.50;99.90;;;;;;5039518;28;19929;-72
2022/12/24 07:26:57;;;;;;;;;;;9.50;99.90;;;;;;5039583;28;19979;-72
2022/12/24 07:29:28;;;;;;;;;;;9.50;99.90;;;;;;5044301;28;20609;-72
2022/12/24 07:32:00;;;;;;;;;;;9.50;99.90;;;;;;5050685;28;19924;-72
2022/12/24 07:34:32;;;;;;;;;;;9.50;99.90;;;;;;5048176;28;20534;-72
2022/12/24 07:37:04;;;;;;;;;;;9.60;99.90;;;;;;5027253;28;19987;-72
2022/12/24 07:39:31;;;;;;;;;;;9.50;99.90;;;;;;5044427;28;20441;-73
2022/12/24 07:42:06;;;;;;;;;;;9.50;99.90;;;;;;5048973;28;19956;-72
2022/12/24 07:44:38;;;;;;;;;;;9.50;99.90;;;;;;5043887;28;19925;-72
2022/12/24 07:47:10;;;;;;;;;;;9.50;99.90;;;;;;5041903;28;19925;-72
2022/12/24 07:49:42;;;;;;;;;;;9.40;99.90;;;;;;5040887;28;19925;-72
2022/12/24 07:52:14;;;;;;;;;;;9.50;99.90;;;;;;5042150;28;20376;-72
2022/12/24 07:54:46;;;;;;;;;;;9.50;99.90;;;;;;5044876;28;19925;-72
2022/12/24 07:57:18;;;;;;;;;;;9.50;99.90;;;;;;5034669;28;19929;-72
2022/12/24 07:59:50;;;;;;;;;;;9.50;99.90;;;;;;5040653;28;19929;-72
2022/12/24 08:02:22;;;;;;;;;;;9.40;99.90;;;;;;5046417;28;19929;-72
2022/12/24 08:04:54;;;;;;;;;;;9.40;99.90;;;;;;5047033;28;19932;-72
2022/12/24 08:07:26;;;;;;;;;;;9.40;99.90;;;;;;5043930;28;19932;-72
2022/12/24 08:09:58;;;;;;;;;;;9.30;99.90;;;;;;5033037;28;20375;-72
2022/12/24 08:12:29;;;;;;;;;;;9.40;99.90;;;;;;5051526;28;19925;-72
2022/12/24 08:15:01;;;;;;;;;;;9.40;99.90;;;;;;5043313;28;19929;-72
2022/12/24 08:17:33;;;;;;;;;;;9.40;99.90;;;;;;5040117;28;19929;-72
2022/12/24 08:20:05;;;;;;;;;;;9.30;99.90;;;;;;5043588;28;19960;-72
2022/12/24 08:22:37;;;;;;;;;;;9.40;99.90;;;;;;5046353;28;20016;-72
2022/12/24 08:25:09;;;;;;;;;;;9.40;99.90;;;;;;5037961;28;19948;-72
2022/12/24 08:27:41;;;;;;;;;;;9.30;99.90;;;;;;5039531;28;20015;-72
2022/12/24 08:30:13;;;;;;;;;;;9.40;99.90;;;;;;5042529;28;20418;-72
2022/12/24 08:32:45;;;;;;;;;;;9.40;99.90;;;;;;5043646;28;20402;-72
2022/12/24 08:35:17;;;;;;;;;;;9.40;99.90;;;;;;5025018;28;20334;-72
2022/12/24 08:37:49;;;;;;;;;;;9.40;99.90;;;;;;5044215;28;19925;-72
2022/12/24 08:40:20;;;;;;;;;;;9.40;99.90;;;;;;5039970;28;19925;-72
2022/12/24 08:42:52;;;;;;;;;;;9.40;99.90;;;;;;5050848;28;19960;-72
2022/12/24 08:45:24;;;;;;;;;;;9.40;99.90;;;;;;5039853;28;19925;-72
2022/12/24 08:47:57;;;;;;;;;;;9.30;99.90;;;;;;5039884;28;20031;-72
2022/12/24 08:50:29;;;;;;;;;;;9.30;99.90;;;;;;5041500;28;20698;-71
2022/12/24 08:53:01;;;;;;;;;;;9.20;99.90;;;;;;5051732;28;19931;-72
2022/12/24 08:55:33;;;;;;;;;;;9.20;99.90;;;;;;5037268;28;20322;-72
2022/12/24 08:58:05;;;;;;;;;;;9.10;99.90;;;;;;5038708;28;19930;-72
2022/12/24 09:00:37;;;;;;;;;;;9.10;99.90;;;;;;5041941;28;20286;-72
2022/12/24 09:03:12;;;;;;;;;;;9.10;99.90;;;;;;5042712;28;20015;-71
2022/12/24 09:05:44;;;;;;;;;;;9.10;99.90;;;;;;5038808;28;19925;-72
2022/12/24 09:08:16;;;;;;;;;;;9.10;99.90;;;;;;5041013;28;19928;-72
2022/12/24 09:10:48;;;;;;;;;;;9.10;99.90;;;;;;5040722;28;20001;-71
2022/12/24 09:13:24;;;;;;;;;;;9.10;99.90;;;;;;5048805;28;19932;-72
2022/12/24 09:15:56;;;;;;;;;;;9.10;99.90;;;;;;5043428;28;20394;-72
2022/12/24 09:18:28;;;;;;;;;;;9.10;99.90;;;;;;5044105;28;20355;-72
2022/12/24 09:21:01;;;;;;;;;;;9.10;99.90;;;;;;5038275;28;19929;-71
2022/12/24 09:23:38;;;;;;;;;;;9.00;99.90;;;;;;5044299;28;20011;-72
2022/12/24 09:26:14;;;;;;;;;;;9.00;99.90;;;;;;5038976;28;19972;-71
2022/12/24 09:28:46;;;;;;;;;;;9.00;99.90;;;;;;5041286;28;19925;-71
2022/12/24 09:31:15;;;;;;;;;;;9.00;99.90;;;;;;5010859;28;19951;-71
2022/12/24 09:33:44;;;;;;;;;;;9.00;99.90;;;;;;5032109;28;20360;-71
2022/12/24 09:36:12;;;;;;;;;;;9.00;99.90;;;;;;5017834;28;19932;-71
2022/12/24 09:38:40;;;;;;;;;;;9.00;99.90;;;;;;5024129;28;19928;-71
2022/12/24 09:41:54;;;;;;;;;;;9.00;99.90;;;;;;5019537;28;20869;-71
2022/12/24 09:44:33;;;;;;;;;;;9.00;99.90;;;;;;5027761;28;20335;-72
2022/12/24 09:47:06;;;;;;;;;;;9.00;99.90;;;;;;5007406;28;20340;-71
2022/12/24 09:49:44;;;;;;;;;;;9.00;99.90;;;;;;5027361;28;19925;-71
2022/12/24 09:52:28;;;;;;;;;;;9.00;99.90;;;;;;5050030;28;19951;-71
2022/12/24 09:55:06;;;;;;;;;;;9.00;99.90;;;;;;5022579;28;19925;-72
2022/12/24 09:57:36;;;;;;;;;;;9.10;99.90;;;;;;5022810;28;19925;-72
2022/12/24 10:00:05;;;;;;;;;;;9.10;99.90;;;;;;5029820;28;20020;-71
2022/12/24 10:02:35;;;;;;;;;;;9.20;99.90;;;;;;5026606;28;19929;-72
2022/12/24 10:05:08;;;;;;;;;;;9.30;99.90;;;;;;5024664;28;19931;-72
2022/12/24 10:07:43;;;;;;;;;;;9.30;99.90;;;;;;5024486;28;19932;-70
2022/12/24 10:10:26;;;;;;;;;;;9.30;99.90;;;;;;5018461;28;19946;-72
2022/12/24 10:13:01;;;;;;;;;;;9.40;99.90;;;;;;5031022;28;19925;-73
2022/12/24 10:15:32;;;;;;;;;;;9.40;99.90;;;;;;5010164;28;20019;-71
2022/12/24 10:18:03;;;;;;;;;;;9.30;99.90;;;;;;5011542;28;19975;-71
2022/12/24 10:20:39;;;;;;;;;;;9.30;99.90;;;;;;5023678;28;19932;-72
2022/12/24 10:23:15;;;;;;;;;;;9.30;99.90;;;;;;5035015;28;19925;-72
2022/12/24 10:26:08;;;;;;;;;;;9.30;99.90;;;;;;5015923;28;19931;-73
2022/12/24 10:28:47;;;;;;;;;;;9.30;99.90;;;;;;5023739;28;19960;-69
2022/12/24 10:31:18;;;;;;;;;;;9.30;99.90;;;;;;5010861;28;20399;-73
2022/12/24 10:33:50;;;;;;;;;;;9.30;99.90;;;;;;5032787;28;20371;-71
2022/12/24 10:36:21;;;;;;;;;;;9.20;99.90;;;;;;5030662;28;20015;-73
2022/12/24 10:38:49;;;;;;;;;;;9.20;99.90;;;;;;5043987;28;20016;-71
2022/12/24 10:41:17;;;;;;;;;;;9.30;99.90;;;;;;5031149;28;20564;-73
2022/12/24 10:43:46;;;;;;;;;;;9.30;99.90;;;;;;5014838;28;20372;-74
2022/12/24 10:46:23;;;;;;;;;;;9.40;99.90;;;;;;5033097;28;20284;-72
2022/12/24 10:48:54;;;;;;;;;;;9.40;99.90;;;;;;5028496;28;20371;-73
2022/12/24 10:51:32;;;;;;;;;;;9.40;99.90;;;;;;5034494;28;19940;-73
2022/12/24 10:54:14;;;;;;;;;;;9.40;99.90;;;;;;5021530;28;20375;-72
2022/12/24 10:56:59;;;;;;;;;;;9.40;99.90;;;;;;5035294;28;20776;-73
2022/12/24 10:59:30;;;;;;;;;;;9.50;99.90;;;;;;5017467;28;20375;-72
2022/12/24 11:01:58;;;;;;;;;;;9.50;99.90;;;;;;5025899;28;20016;-71
2022/12/24 11:04:29;;;;;;;;;;;9.50;99.90;;;;;;5017347;28;19933;-73
2022/12/24 11:07:02;;;;;;;;;;;9.50;99.90;;;;;;5046606;28;19982;-73
2022/12/24 11:09:30;;;;;;;;;;;9.50;99.90;;;;;;5025363;28;19932;-72
2022/12/24 11:12:06;;;;;;;;;;;9.50;99.90;;;;;;5035913;28;19929;-73
2022/12/24 11:14:41;;;;;;;;;;;9.50;99.90;;;;;;5034586;28;19931;-73
2022/12/24 11:17:18;;;;;;;;;;;9.60;99.90;;;;;;5016746;28;19925;-73
2022/12/24 11:19:47;;;;;;;;;;;9.60;99.90;;;;;;5026101;28;19924;-72
2022/12/24 11:22:22;;;;;;;;;;;9.50;99.90;;;;;;5032731;28;20442;-72
2022/12/24 11:25:01;;;;;;;;;;;9.50;99.90;;;;;;5031766;28;19925;-73
2022/12/24 11:27:39;;;;;;;;;;;9.40;99.90;;;;;;5045535;28;20023;-73
2022/12/24 11:30:12;;;;;;;;;;;9.30;99.90;;;;;;5029342;28;19932;-73
2022/12/24 11:32:41;;;;;;;;;;;9.30;99.90;;;;;;5029103;28;19929;-73
2022/12/24 11:35:17;;;;;;;;;;;9.30;99.90;;;;;;5034803;28;20445;-73
2022/12/24 11:37:46;;;;;;;;;;;9.20;99.90;;;;;;5032483;28;19995;-73
2022/12/24 11:40:21;;;;;;;;;;;9.20;99.90;;;;;;5027840;28;19925;-73
2022/12/24 11:42:52;;;;;;;;;;;9.20;99.90;;;;;;5031470;28;19937;-71
2022/12/24 11:45:24;;;;;;;;;;;9.20;99.90;;;;;;5016374;28;20385;-72
2022/12/24 11:47:55;;;;;;;;;;;9.30;99.90;;;;;;5015528;28;19925;-73
2022/12/24 11:50:37;;;;;;;;;;;9.30;99.90;;;;;;5028462;28;19929;-72
2022/12/24 11:53:11;;;;;;;;;;;9.30;99.90;;;;;;5010771;28;19957;-72
2022/12/24 11:55:41;;;;;;;;;;;9.30;99.90;;;;;;4998665;28;19935;-74
2022/12/24 11:58:30;;;;;;;;;;;9.40;99.90;;;;;;5043374;28;19933;-76
2022/12/24 12:01:11;;;;;;;;;;;9.40;99.90;;;;;;5028972;28;19935;-72
2022/12/24 12:03:44;;;;;;;;;;;9.40;99.90;;;;;;5032718;28;20437;-73
2022/12/24 12:06:23;;;;;;;;;;;9.50;99.90;;;;;;5013639;28;20660;-73
2022/12/24 12:08:54;;;;;;;;;;;9.50;99.90;;;;;;5013178;28;19933;-72
2022/12/24 12:11:24;;;;;;;;;;;9.40;99.90;;;;;;5048348;28;20383;-72
2022/12/24 12:13:53;;;;;;;;;;;9.40;99.90;;;;;;5038969;28;19933;-72
2022/12/24 12:16:59;;;;;;;;;;;9.40;99.90;;;;;;5017609;28;19931;-72
2022/12/24 12:19:27;;;;;;;;;;;9.50;99.90;;;;;;5041710;28;20006;-72
2022/12/24 12:22:44;;;;;;;;;;;9.40;99.90;;;;;;5033739;28;19931;-73
2022/12/24 12:25:22;;;;;;;;;;;9.40;99.90;;;;;;5005837;28;19929;-72
2022/12/24 12:27:54;;;;;;;;;;;9.40;99.90;;;;;;5046272;28;19925;-72
2022/12/24 12:30:25;;;;;;;;;;;9.40;99.90;;;;;;5030467;28;19932;-72
2022/12/24 12:33:15;;;;;;;;;;;9.30;99.90;;;;;;5026976;28;19972;-70
2022/12/24 12:35:44;;;;;;;;;;;9.30;99.90;;;;;;5029557;28;19928;-72
2022/12/24 12:38:15;;;;;;;;;;;9.30;99.90;;;;;;5034968;28;19925;-73
2022/12/24 12:41:01;;;;;;;;;;;9.20;99.90;;;;;;5024163;28;20039;-73
2022/12/24 12:43:48;;;;;;;;;;;9.20;99.90;;;;;;5008549;28;20375;-73
2022/12/24 12:46:33;;;;;;;;;;;9.20;99.90;;;;;;5024011;28;19968;-72
2022/12/24 12:49:16;;;;;;;;;;;9.20;99.90;;;;;;5014391;28;19963;-73
2022/12/24 12:51:56;;;;;;;;;;;9.20;99.90;;;;;;5033081;28;20004;-71
2022/12/24 12:54:34;;;;;;;;;;;9.30;99.90;;;;;;5027873;28;19925;-73
2022/12/24 12:57:07;;;;;;;;;;;9.30;99.90;;;;;;5025839;28;19956;-73
2022/12/24 13:00:01;;;;;;;;;;;9.40;99.90;;;;;;5024434;28;19968;-72
2022/12/24 13:02:47;;;;;;;;;;;9.50;99.90;;;;;;5045413;28;19932;-73
2022/12/24 13:05:21;;;;;;;;;;;9.60;99.90;;;;;;5027008;28;20322;-73
2022/12/24 13:08:06;;;;;;;;;;;9.60;99.90;;;;;;5030728;28;20276;-72
2022/12/24 13:11:15;;;;;;;;;;;9.60;99.90;;;;;;5045036;28;19994;-73
2022/12/24 13:14:07;;;;;;;;;;;9.60;99.90;;;;;;5047417;28;19935;-73
2022/12/24 13:16:50;;;;;;;;;;;9.50;99.90;;;;;;5028343;28;19928;-71
2022/12/24 13:19:25;;;;;;;;;;;9.50;99.90;;;;;;5029098;28;19929;-73
2022/12/24 13:21:57;;;;;;;;;;;9.50;99.90;;;;;;5037123;28;19929;-73
2022/12/24 13:24:30;;;;;;;;;;;9.60;99.90;;;;;;5039891;28;20407;-73
2022/12/24 13:27:06;;;;;;;;;;;9.60;99.90;;;;;;5039055;28;19929;-72
2022/12/24 13:29:42;;;;;;;;;;;9.60;99.90;;;;;;5028752;28;19925;-72
2022/12/24 13:32:20;;;;;;;;;;;9.60;99.90;;;;;;5014759;28;19932;-72
2022/12/24 13:34:53;;;;;;;;;;;9.60;99.90;;;;;;5029935;28;19925;-73
2022/12/24 13:37:20;;;;;;;;;;;9.60;99.90;;;;;;5011579;28;20054;-73
2022/12/24 13:40:04;;;;;;;;;;;9.60;99.90;;;;;;5037782;28;19936;-72
2022/12/24 13:42:54;;;;;;;;;;;9.60;99.90;;;;;;5044310;28;19928;-73
2022/12/24 13:45:27;;;;;;;;;;;9.60;99.90;;;;;;5049925;28;19924;-72
2022/12/24 13:48:06;;;;;;;;;;;9.50;99.90;;;;;;5033091;28;19928;-73
2022/12/24 13:50:33;;;;;;;;;;;9.60;99.90;;;;;;5011742;28;20302;-72
2022/12/24 13:53:06;;;;;;;;;;;9.60;99.90;;;;;;5033301;28;20398;-73
2022/12/24 13:55:33;;;;;;;;;;;9.50;99.90;;;;;;5047447;28;19925;-73
2022/12/24 13:58:05;;;;;;;;;;;9.50;99.90;;;;;;5045439;28;19951;-73
2022/12/24 14:00:41;;;;;;;;;;;9.50;99.90;;;;;;5043351;28;19935;-74
2022/12/24 14:03:13;;;;;;;;;;;9.50;99.90;;;;;;5035664;28;20410;-74
2022/12/24 14:05:47;;;;;;;;;;;9.40;99.90;;;;;;5051252;28;19929;-73
2022/12/24 14:08:21;;;;;;;;;;;9.40;99.90;;;;;;5038384;28;19974;-72
2022/12/24 14:11:05;;;;;;;;;;;9.40;99.90;;;;;;5018143;28;20295;-73
2022/12/24 14:13:36;;;;;;;;;;;9.40;99.90;;;;;;5034386;28;19925;-71
2022/12/24 14:16:14;;;;;;;;;;;9.40;99.90;;;;;;5048114;28;19999;-73
2022/12/24 14:18:49;;;;;;;;;;;9.40;99.90;;;;;;5033413;28;19928;-71
2022/12/24 14:21:22;;;;;;;;;;;9.30;99.90;;;;;;5050809;28;20375;-73
2022/12/24 14:24:02;;;;;;;;;;;9.30;99.90;;;;;;5039269;28;19929;-73
2022/12/24 14:26:35;;;;;;;;;;;9.20;99.90;;;;;;5048039;28;21398;-72
2022/12/24 14:29:16;;;;;;;;;;;9.20;99.90;;;;;;5039262;28;19995;-73
2022/12/24 14:31:52;;;;;;;;;;;9.20;99.90;;;;;;5050039;28;20010;-73
2022/12/24 14:34:24;;;;;;;;;;;9.10;99.90;;;;;;5038647;28;19932;-72
2022/12/24 14:36:58;;;;;;;;;;;9.10;99.90;;;;;;5038327;28;19929;-71
2022/12/24 14:39:29;;;;;;;;;;;9.10;99.90;;;;;;5035563;28;19975;-73
2022/12/24 14:42:06;;;;;;;;;;;9.10;99.90;;;;;;5035070;28;19936;-73
2022/12/24 14:44:38;;;;;;;;;;;9.00;99.90;;;;;;5052538;28;19928;-74
2022/12/24 14:47:27;;;;;;;;;;;9.00;99.90;;;;;;5048550;28;20452;-73
2022/12/24 14:50:09;;;;;;;;;;;8.90;99.90;;;;;;5048470;28;20423;-74
2022/12/24 14:53:01;;;;;;;;;;;8.80;99.90;;;;;;5049441;28;19928;-72
2022/12/24 14:55:38;;;;;;;;;;;8.80;99.90;;;;;;5010173;28;19925;-73
2022/12/24 14:58:24;;;;;;;;;;;8.80;99.90;;;;;;5029347;28;19979;-73
2022/12/24 15:01:00;;;;;;;;;;;8.70;99.90;;;;;;5016107;28;20330;-72
2022/12/24 15:03:31;;;;;;;;;;;8.70;99.90;;;;;;5038769;28;19963;-73
2022/12/24 15:06:05;;;;;;;;;;;8.70;99.90;;;;;;5048086;28;19943;-73
2022/12/24 15:08:39;;;;;;;;;;;8.60;99.90;;;;;;5022749;28;19932;-73
2022/12/24 15:11:15;;;;;;;;;;;8.60;99.90;;;;;;5034572;28;19991;-72
2022/12/24 15:13:54;;;;;;;;;;;8.60;99.90;;;;;;5035934;28;19979;-72
2022/12/24 15:16:27;;;;;;;;;;;8.50;99.90;;;;;;5047870;28;19932;-73
2022/12/24 15:19:01;;;;;;;;;;;8.40;99.90;;;;;;5028067;28;20382;-71
2022/12/24 15:21:30;;;;;;;;;;;8.40;99.90;;;;;;5023827;28;20331;-74
2022/12/24 15:24:02;;;;;;;;;;;8.40;99.90;;;;;;5041780;28;19932;-73